<?xml version="1.0" encoding="UTF-8" standalone="no" ?>
<gpx xmlns="http://www.topografix.com/GPX/1/1" xmlns:xsi="http://www.w3.org/2001/XMLSchema-instance" xsi:schemaLocation="http://www.topografix.com/GPX/1/1 http://www.topografix.com/GPX/1/1/gpx.xsd" version="1.1" creator="VisuGPX - https://www.visugpx.com">
  <metadata>
    <name>Belley / Gevrin7</name>
    <desc><![CDATA[Ain - Bugey.
Boucle au départ de Belley.
Passage à Les Eplantaz, Bois de Chazey, Rothonod, La Parollière, Condon, Gevrin, Boissieu, Lac de Chailloux, Mollard du Cry, Bognens, Bilignin.]]></desc>
  </metadata>
  <trk>
    <name><![CDATA[14459918-Belley / Gevrin7]]></name>
    <extensions>
      <line xmlns="http://www.topografix.com/GPX/gpx_style/0/2">
        <color>0000FF</color>
        <width>4</width>
      </line>
    </extensions>
    <trkseg>
      <trkpt lat="45.75801" lon="5.68938">
        <ele>281</ele>
        <time>2022-03-30T22:03:06Z</time>
      </trkpt>
      <trkpt lat="45.75828" lon="5.68872">
        <ele>280</ele>
        <time>2022-03-30T22:03:18Z</time>
      </trkpt>
      <trkpt lat="45.75837" lon="5.68862">
        <ele>280</ele>
        <time>2022-03-30T22:03:21Z</time>
      </trkpt>
      <trkpt lat="45.75753" lon="5.68798">
        <ele>279</ele>
        <time>2022-03-30T22:03:43Z</time>
      </trkpt>
      <trkpt lat="45.75709" lon="5.68769">
        <ele>281</ele>
        <time>2022-03-30T22:03:55Z</time>
      </trkpt>
      <trkpt lat="45.75697" lon="5.68765">
        <ele>282</ele>
        <time>2022-03-30T22:03:58Z</time>
      </trkpt>
      <trkpt lat="45.75686" lon="5.68758">
        <ele>282</ele>
        <time>2022-03-30T22:04:00Z</time>
      </trkpt>
      <trkpt lat="45.75597" lon="5.68661">
        <ele>286</ele>
        <time>2022-03-30T22:04:26Z</time>
      </trkpt>
      <trkpt lat="45.75588" lon="5.68639">
        <ele>287</ele>
        <time>2022-03-30T22:04:31Z</time>
      </trkpt>
      <trkpt lat="45.7558" lon="5.68599">
        <ele>288</ele>
        <time>2022-03-30T22:04:37Z</time>
      </trkpt>
      <trkpt lat="45.75558" lon="5.68519">
        <ele>289</ele>
        <time>2022-03-30T22:04:51Z</time>
      </trkpt>
      <trkpt lat="45.75551" lon="5.68474">
        <ele>289</ele>
        <time>2022-03-30T22:04:59Z</time>
      </trkpt>
      <trkpt lat="45.75553" lon="5.68456">
        <ele>289</ele>
        <time>2022-03-30T22:05:02Z</time>
      </trkpt>
      <trkpt lat="45.75558" lon="5.6844">
        <ele>289</ele>
        <time>2022-03-30T22:05:05Z</time>
      </trkpt>
      <trkpt lat="45.75563" lon="5.68394">
        <ele>288</ele>
        <time>2022-03-30T22:05:12Z</time>
      </trkpt>
      <trkpt lat="45.75568" lon="5.6838">
        <ele>288</ele>
        <time>2022-03-30T22:05:15Z</time>
      </trkpt>
      <trkpt lat="45.75577" lon="5.68379">
        <ele>287</ele>
        <time>2022-03-30T22:05:17Z</time>
      </trkpt>
      <trkpt lat="45.7558" lon="5.68367">
        <ele>287</ele>
        <time>2022-03-30T22:05:19Z</time>
      </trkpt>
      <trkpt lat="45.75574" lon="5.68358">
        <ele>287</ele>
        <time>2022-03-30T22:05:21Z</time>
      </trkpt>
      <trkpt lat="45.75573" lon="5.68342">
        <ele>287</ele>
        <time>2022-03-30T22:05:24Z</time>
      </trkpt>
      <trkpt lat="45.75603" lon="5.68167">
        <ele>289</ele>
        <time>2022-03-30T22:05:53Z</time>
      </trkpt>
      <trkpt lat="45.75616" lon="5.6812">
        <ele>288</ele>
        <time>2022-03-30T22:06:01Z</time>
      </trkpt>
      <trkpt lat="45.75628" lon="5.68095">
        <ele>288</ele>
        <time>2022-03-30T22:06:06Z</time>
      </trkpt>
      <trkpt lat="45.7567" lon="5.68035">
        <ele>285</ele>
        <time>2022-03-30T22:06:20Z</time>
      </trkpt>
      <trkpt lat="45.75737" lon="5.67901">
        <ele>288</ele>
        <time>2022-03-30T22:06:47Z</time>
      </trkpt>
      <trkpt lat="45.75751" lon="5.67877">
        <ele>290</ele>
        <time>2022-03-30T22:06:52Z</time>
      </trkpt>
      <trkpt lat="45.75777" lon="5.67845">
        <ele>292</ele>
        <time>2022-03-30T22:07:00Z</time>
      </trkpt>
      <trkpt lat="45.75822" lon="5.67905">
        <ele>290</ele>
        <time>2022-03-30T22:07:14Z</time>
      </trkpt>
      <trkpt lat="45.76087" lon="5.68236">
        <ele>289</ele>
        <time>2022-03-30T22:08:37Z</time>
      </trkpt>
      <trkpt lat="45.76092" lon="5.6825">
        <ele>290</ele>
        <time>2022-03-30T22:08:39Z</time>
      </trkpt>
      <trkpt lat="45.76101" lon="5.68245">
        <ele>290</ele>
        <time>2022-03-30T22:08:41Z</time>
      </trkpt>
      <trkpt lat="45.76111" lon="5.68231">
        <ele>291</ele>
        <time>2022-03-30T22:08:45Z</time>
      </trkpt>
      <trkpt lat="45.7616" lon="5.68147">
        <ele>300</ele>
        <time>2022-03-30T22:09:02Z</time>
      </trkpt>
      <trkpt lat="45.76184" lon="5.6818">
        <ele>301</ele>
        <time>2022-03-30T22:09:10Z</time>
      </trkpt>
      <trkpt lat="45.76232" lon="5.68235">
        <ele>303</ele>
        <time>2022-03-30T22:09:25Z</time>
      </trkpt>
      <trkpt lat="45.7627" lon="5.68271">
        <ele>304</ele>
        <time>2022-03-30T22:09:35Z</time>
      </trkpt>
      <trkpt lat="45.76279" lon="5.68277">
        <ele>305</ele>
        <time>2022-03-30T22:09:38Z</time>
      </trkpt>
      <trkpt lat="45.76292" lon="5.68276">
        <ele>306</ele>
        <time>2022-03-30T22:09:41Z</time>
      </trkpt>
      <trkpt lat="45.76308" lon="5.68287">
        <ele>307</ele>
        <time>2022-03-30T22:09:45Z</time>
      </trkpt>
      <trkpt lat="45.76344" lon="5.68335">
        <ele>306</ele>
        <time>2022-03-30T22:09:56Z</time>
      </trkpt>
      <trkpt lat="45.76357" lon="5.68355">
        <ele>307</ele>
        <time>2022-03-30T22:10:01Z</time>
      </trkpt>
      <trkpt lat="45.76363" lon="5.68369">
        <ele>307</ele>
        <time>2022-03-30T22:10:03Z</time>
      </trkpt>
      <trkpt lat="45.76435" lon="5.68356">
        <ele>316</ele>
        <time>2022-03-30T22:10:20Z</time>
      </trkpt>
      <trkpt lat="45.76517" lon="5.68346">
        <ele>327</ele>
        <time>2022-03-30T22:10:39Z</time>
      </trkpt>
      <trkpt lat="45.76541" lon="5.68361">
        <ele>326</ele>
        <time>2022-03-30T22:10:46Z</time>
      </trkpt>
      <trkpt lat="45.76584" lon="5.68365">
        <ele>328</ele>
        <time>2022-03-30T22:10:56Z</time>
      </trkpt>
      <trkpt lat="45.76587" lon="5.68374">
        <ele>328</ele>
        <time>2022-03-30T22:10:57Z</time>
      </trkpt>
      <trkpt lat="45.76593" lon="5.6837">
        <ele>328</ele>
        <time>2022-03-30T22:10:59Z</time>
      </trkpt>
      <trkpt lat="45.76596" lon="5.68362">
        <ele>328</ele>
        <time>2022-03-30T22:11:00Z</time>
      </trkpt>
      <trkpt lat="45.76606" lon="5.68354">
        <ele>328</ele>
        <time>2022-03-30T22:11:03Z</time>
      </trkpt>
      <trkpt lat="45.76624" lon="5.68346">
        <ele>328</ele>
        <time>2022-03-30T22:11:07Z</time>
      </trkpt>
      <trkpt lat="45.76676" lon="5.68369">
        <ele>329</ele>
        <time>2022-03-30T22:11:20Z</time>
      </trkpt>
      <trkpt lat="45.76739" lon="5.68394">
        <ele>327</ele>
        <time>2022-03-30T22:11:35Z</time>
      </trkpt>
      <trkpt lat="45.7675" lon="5.68396">
        <ele>327</ele>
        <time>2022-03-30T22:11:38Z</time>
      </trkpt>
      <trkpt lat="45.76761" lon="5.68389">
        <ele>327</ele>
        <time>2022-03-30T22:11:41Z</time>
      </trkpt>
      <trkpt lat="45.76842" lon="5.68314">
        <ele>325</ele>
        <time>2022-03-30T22:12:03Z</time>
      </trkpt>
      <trkpt lat="45.76852" lon="5.68313">
        <ele>325</ele>
        <time>2022-03-30T22:12:06Z</time>
      </trkpt>
      <trkpt lat="45.76869" lon="5.68316">
        <ele>325</ele>
        <time>2022-03-30T22:12:10Z</time>
      </trkpt>
      <trkpt lat="45.76898" lon="5.68317">
        <ele>325</ele>
        <time>2022-03-30T22:12:16Z</time>
      </trkpt>
      <trkpt lat="45.76927" lon="5.68316">
        <ele>325</ele>
        <time>2022-03-30T22:12:23Z</time>
      </trkpt>
      <trkpt lat="45.76944" lon="5.68313">
        <ele>325</ele>
        <time>2022-03-30T22:12:27Z</time>
      </trkpt>
      <trkpt lat="45.77001" lon="5.68295">
        <ele>324</ele>
        <time>2022-03-30T22:12:41Z</time>
      </trkpt>
      <trkpt lat="45.77009" lon="5.68287">
        <ele>324</ele>
        <time>2022-03-30T22:12:43Z</time>
      </trkpt>
      <trkpt lat="45.77012" lon="5.68275">
        <ele>325</ele>
        <time>2022-03-30T22:12:45Z</time>
      </trkpt>
      <trkpt lat="45.77013" lon="5.68223">
        <ele>326</ele>
        <time>2022-03-30T22:12:54Z</time>
      </trkpt>
      <trkpt lat="45.7702" lon="5.68214">
        <ele>327</ele>
        <time>2022-03-30T22:12:56Z</time>
      </trkpt>
      <trkpt lat="45.77036" lon="5.68213">
        <ele>326</ele>
        <time>2022-03-30T22:13:00Z</time>
      </trkpt>
      <trkpt lat="45.77096" lon="5.68239">
        <ele>325</ele>
        <time>2022-03-30T22:13:14Z</time>
      </trkpt>
      <trkpt lat="45.77123" lon="5.68246">
        <ele>324</ele>
        <time>2022-03-30T22:13:21Z</time>
      </trkpt>
      <trkpt lat="45.77198" lon="5.68243">
        <ele>326</ele>
        <time>2022-03-30T22:13:38Z</time>
      </trkpt>
      <trkpt lat="45.77253" lon="5.68248">
        <ele>327</ele>
        <time>2022-03-30T22:13:51Z</time>
      </trkpt>
      <trkpt lat="45.77263" lon="5.68245">
        <ele>327</ele>
        <time>2022-03-30T22:13:53Z</time>
      </trkpt>
      <trkpt lat="45.77269" lon="5.68235">
        <ele>327</ele>
        <time>2022-03-30T22:13:56Z</time>
      </trkpt>
      <trkpt lat="45.773" lon="5.68155">
        <ele>327</ele>
        <time>2022-03-30T22:14:10Z</time>
      </trkpt>
      <trkpt lat="45.77315" lon="5.68125">
        <ele>326</ele>
        <time>2022-03-30T22:14:16Z</time>
      </trkpt>
      <trkpt lat="45.77322" lon="5.68085">
        <ele>325</ele>
        <time>2022-03-30T22:14:23Z</time>
      </trkpt>
      <trkpt lat="45.77326" lon="5.68028">
        <ele>321</ele>
        <time>2022-03-30T22:14:32Z</time>
      </trkpt>
      <trkpt lat="45.77332" lon="5.68013">
        <ele>320</ele>
        <time>2022-03-30T22:14:35Z</time>
      </trkpt>
      <trkpt lat="45.77396" lon="5.6797">
        <ele>320</ele>
        <time>2022-03-30T22:14:52Z</time>
      </trkpt>
      <trkpt lat="45.77405" lon="5.67968">
        <ele>320</ele>
        <time>2022-03-30T22:14:54Z</time>
      </trkpt>
      <trkpt lat="45.77425" lon="5.67997">
        <ele>317</ele>
        <time>2022-03-30T22:15:01Z</time>
      </trkpt>
      <trkpt lat="45.77442" lon="5.68031">
        <ele>311</ele>
        <time>2022-03-30T22:15:07Z</time>
      </trkpt>
      <trkpt lat="45.77463" lon="5.68053">
        <ele>305</ele>
        <time>2022-03-30T22:15:13Z</time>
      </trkpt>
      <trkpt lat="45.77479" lon="5.68079">
        <ele>301</ele>
        <time>2022-03-30T22:15:19Z</time>
      </trkpt>
      <trkpt lat="45.77514" lon="5.68116">
        <ele>289</ele>
        <time>2022-03-30T22:15:29Z</time>
      </trkpt>
      <trkpt lat="45.77517" lon="5.68131">
        <ele>287</ele>
        <time>2022-03-30T22:15:32Z</time>
      </trkpt>
      <trkpt lat="45.77517" lon="5.6816">
        <ele>285</ele>
        <time>2022-03-30T22:15:37Z</time>
      </trkpt>
      <trkpt lat="45.77528" lon="5.68194">
        <ele>279</ele>
        <time>2022-03-30T22:15:43Z</time>
      </trkpt>
      <trkpt lat="45.7754" lon="5.68207">
        <ele>275</ele>
        <time>2022-03-30T22:15:46Z</time>
      </trkpt>
      <trkpt lat="45.77555" lon="5.68218">
        <ele>270</ele>
        <time>2022-03-30T22:15:50Z</time>
      </trkpt>
      <trkpt lat="45.77612" lon="5.68238">
        <ele>262</ele>
        <time>2022-03-30T22:16:04Z</time>
      </trkpt>
      <trkpt lat="45.77634" lon="5.68159">
        <ele>261</ele>
        <time>2022-03-30T22:16:18Z</time>
      </trkpt>
      <trkpt lat="45.77654" lon="5.6812">
        <ele>260</ele>
        <time>2022-03-30T22:16:26Z</time>
      </trkpt>
      <trkpt lat="45.77694" lon="5.68054">
        <ele>258</ele>
        <time>2022-03-30T22:16:40Z</time>
      </trkpt>
      <trkpt lat="45.77771" lon="5.67962">
        <ele>256</ele>
        <time>2022-03-30T22:17:03Z</time>
      </trkpt>
      <trkpt lat="45.77831" lon="5.68025">
        <ele>253</ele>
        <time>2022-03-30T22:17:21Z</time>
      </trkpt>
      <trkpt lat="45.77856" lon="5.68046">
        <ele>251</ele>
        <time>2022-03-30T22:17:27Z</time>
      </trkpt>
      <trkpt lat="45.77924" lon="5.68072">
        <ele>245</ele>
        <time>2022-03-30T22:17:44Z</time>
      </trkpt>
      <trkpt lat="45.7796" lon="5.68046">
        <ele>241</ele>
        <time>2022-03-30T22:17:53Z</time>
      </trkpt>
      <trkpt lat="45.77992" lon="5.68032">
        <ele>239</ele>
        <time>2022-03-30T22:18:01Z</time>
      </trkpt>
      <trkpt lat="45.78091" lon="5.67973">
        <ele>239</ele>
        <time>2022-03-30T22:18:26Z</time>
      </trkpt>
      <trkpt lat="45.7818" lon="5.67906">
        <ele>247</ele>
        <time>2022-03-30T22:18:49Z</time>
      </trkpt>
      <trkpt lat="45.78193" lon="5.67886">
        <ele>250</ele>
        <time>2022-03-30T22:18:54Z</time>
      </trkpt>
      <trkpt lat="45.78206" lon="5.67923">
        <ele>250</ele>
        <time>2022-03-30T22:19:01Z</time>
      </trkpt>
      <trkpt lat="45.78252" lon="5.68015">
        <ele>248</ele>
        <time>2022-03-30T22:19:19Z</time>
      </trkpt>
      <trkpt lat="45.78286" lon="5.68062">
        <ele>246</ele>
        <time>2022-03-30T22:19:30Z</time>
      </trkpt>
      <trkpt lat="45.78326" lon="5.68102">
        <ele>244</ele>
        <time>2022-03-30T22:19:42Z</time>
      </trkpt>
      <trkpt lat="45.78344" lon="5.68116">
        <ele>245</ele>
        <time>2022-03-30T22:19:46Z</time>
      </trkpt>
      <trkpt lat="45.78372" lon="5.68135">
        <ele>246</ele>
        <time>2022-03-30T22:19:54Z</time>
      </trkpt>
      <trkpt lat="45.78424" lon="5.68165">
        <ele>246</ele>
        <time>2022-03-30T22:20:07Z</time>
      </trkpt>
      <trkpt lat="45.78454" lon="5.68176">
        <ele>246</ele>
        <time>2022-03-30T22:20:14Z</time>
      </trkpt>
      <trkpt lat="45.78479" lon="5.68183">
        <ele>246</ele>
        <time>2022-03-30T22:20:20Z</time>
      </trkpt>
      <trkpt lat="45.78519" lon="5.68189">
        <ele>245</ele>
        <time>2022-03-30T22:20:29Z</time>
      </trkpt>
      <trkpt lat="45.78577" lon="5.68188">
        <ele>245</ele>
        <time>2022-03-30T22:20:43Z</time>
      </trkpt>
      <trkpt lat="45.78596" lon="5.68192">
        <ele>242</ele>
        <time>2022-03-30T22:20:47Z</time>
      </trkpt>
      <trkpt lat="45.7861" lon="5.68189">
        <ele>240</ele>
        <time>2022-03-30T22:20:51Z</time>
      </trkpt>
      <trkpt lat="45.78641" lon="5.68132">
        <ele>243</ele>
        <time>2022-03-30T22:21:02Z</time>
      </trkpt>
      <trkpt lat="45.78658" lon="5.68094">
        <ele>243</ele>
        <time>2022-03-30T22:21:10Z</time>
      </trkpt>
      <trkpt lat="45.78667" lon="5.68063">
        <ele>243</ele>
        <time>2022-03-30T22:21:15Z</time>
      </trkpt>
      <trkpt lat="45.78676" lon="5.68017">
        <ele>246</ele>
        <time>2022-03-30T22:21:23Z</time>
      </trkpt>
      <trkpt lat="45.78678" lon="5.67891">
        <ele>242</ele>
        <time>2022-03-30T22:21:43Z</time>
      </trkpt>
      <trkpt lat="45.78675" lon="5.67843">
        <ele>239</ele>
        <time>2022-03-30T22:21:51Z</time>
      </trkpt>
      <trkpt lat="45.7865" lon="5.67782">
        <ele>242</ele>
        <time>2022-03-30T22:22:03Z</time>
      </trkpt>
      <trkpt lat="45.78663" lon="5.67786">
        <ele>239</ele>
        <time>2022-03-30T22:22:06Z</time>
      </trkpt>
      <trkpt lat="45.78675" lon="5.67772">
        <ele>237</ele>
        <time>2022-03-30T22:22:10Z</time>
      </trkpt>
      <trkpt lat="45.78693" lon="5.6776">
        <ele>237</ele>
        <time>2022-03-30T22:22:14Z</time>
      </trkpt>
      <trkpt lat="45.7873" lon="5.67761">
        <ele>237</ele>
        <time>2022-03-30T22:22:23Z</time>
      </trkpt>
      <trkpt lat="45.78743" lon="5.67766">
        <ele>237</ele>
        <time>2022-03-30T22:22:26Z</time>
      </trkpt>
      <trkpt lat="45.78754" lon="5.6778">
        <ele>236</ele>
        <time>2022-03-30T22:22:29Z</time>
      </trkpt>
      <trkpt lat="45.78766" lon="5.67788">
        <ele>236</ele>
        <time>2022-03-30T22:22:32Z</time>
      </trkpt>
      <trkpt lat="45.78776" lon="5.67823">
        <ele>234</ele>
        <time>2022-03-30T22:22:39Z</time>
      </trkpt>
      <trkpt lat="45.78782" lon="5.67837">
        <ele>233</ele>
        <time>2022-03-30T22:22:41Z</time>
      </trkpt>
      <trkpt lat="45.78791" lon="5.67848">
        <ele>233</ele>
        <time>2022-03-30T22:22:44Z</time>
      </trkpt>
      <trkpt lat="45.78821" lon="5.67861">
        <ele>231</ele>
        <time>2022-03-30T22:22:51Z</time>
      </trkpt>
      <trkpt lat="45.78829" lon="5.6785">
        <ele>232</ele>
        <time>2022-03-30T22:22:54Z</time>
      </trkpt>
      <trkpt lat="45.7884" lon="5.67818">
        <ele>234</ele>
        <time>2022-03-30T22:23:00Z</time>
      </trkpt>
      <trkpt lat="45.78846" lon="5.6781">
        <ele>234</ele>
        <time>2022-03-30T22:23:02Z</time>
      </trkpt>
      <trkpt lat="45.78855" lon="5.67804">
        <ele>234</ele>
        <time>2022-03-30T22:23:04Z</time>
      </trkpt>
      <trkpt lat="45.78873" lon="5.67803">
        <ele>234</ele>
        <time>2022-03-30T22:23:08Z</time>
      </trkpt>
      <trkpt lat="45.78887" lon="5.67812">
        <ele>233</ele>
        <time>2022-03-30T22:23:12Z</time>
      </trkpt>
      <trkpt lat="45.78912" lon="5.67839">
        <ele>232</ele>
        <time>2022-03-30T22:23:19Z</time>
      </trkpt>
      <trkpt lat="45.78929" lon="5.67845">
        <ele>232</ele>
        <time>2022-03-30T22:23:23Z</time>
      </trkpt>
      <trkpt lat="45.7895" lon="5.67848">
        <ele>232</ele>
        <time>2022-03-30T22:23:28Z</time>
      </trkpt>
      <trkpt lat="45.78963" lon="5.67856">
        <ele>232</ele>
        <time>2022-03-30T22:23:31Z</time>
      </trkpt>
      <trkpt lat="45.78973" lon="5.67864">
        <ele>232</ele>
        <time>2022-03-30T22:23:34Z</time>
      </trkpt>
      <trkpt lat="45.78982" lon="5.67876">
        <ele>231</ele>
        <time>2022-03-30T22:23:37Z</time>
      </trkpt>
      <trkpt lat="45.78999" lon="5.67905">
        <ele>231</ele>
        <time>2022-03-30T22:23:43Z</time>
      </trkpt>
      <trkpt lat="45.79011" lon="5.67911">
        <ele>231</ele>
        <time>2022-03-30T22:23:46Z</time>
      </trkpt>
      <trkpt lat="45.79027" lon="5.67913">
        <ele>231</ele>
        <time>2022-03-30T22:23:50Z</time>
      </trkpt>
      <trkpt lat="45.7904" lon="5.67911">
        <ele>231</ele>
        <time>2022-03-30T22:23:53Z</time>
      </trkpt>
      <trkpt lat="45.79049" lon="5.67906">
        <ele>230</ele>
        <time>2022-03-30T22:23:55Z</time>
      </trkpt>
      <trkpt lat="45.79079" lon="5.67869">
        <ele>230</ele>
        <time>2022-03-30T22:24:04Z</time>
      </trkpt>
      <trkpt lat="45.79145" lon="5.67856">
        <ele>231</ele>
        <time>2022-03-30T22:24:20Z</time>
      </trkpt>
      <trkpt lat="45.79176" lon="5.67859">
        <ele>231</ele>
        <time>2022-03-30T22:24:27Z</time>
      </trkpt>
      <trkpt lat="45.79173" lon="5.67745">
        <ele>237</ele>
        <time>2022-03-30T22:24:46Z</time>
      </trkpt>
      <trkpt lat="45.79145" lon="5.67698">
        <ele>235</ele>
        <time>2022-03-30T22:24:56Z</time>
      </trkpt>
      <trkpt lat="45.79132" lon="5.67689">
        <ele>235</ele>
        <time>2022-03-30T22:24:59Z</time>
      </trkpt>
      <trkpt lat="45.79116" lon="5.67684">
        <ele>234</ele>
        <time>2022-03-30T22:25:03Z</time>
      </trkpt>
      <trkpt lat="45.79092" lon="5.67682">
        <ele>234</ele>
        <time>2022-03-30T22:25:09Z</time>
      </trkpt>
      <trkpt lat="45.79079" lon="5.67659">
        <ele>235</ele>
        <time>2022-03-30T22:25:14Z</time>
      </trkpt>
      <trkpt lat="45.79068" lon="5.67657">
        <ele>236</ele>
        <time>2022-03-30T22:25:16Z</time>
      </trkpt>
      <trkpt lat="45.79053" lon="5.67665">
        <ele>236</ele>
        <time>2022-03-30T22:25:20Z</time>
      </trkpt>
      <trkpt lat="45.79006" lon="5.67656">
        <ele>241</ele>
        <time>2022-03-30T22:25:31Z</time>
      </trkpt>
      <trkpt lat="45.78991" lon="5.67657">
        <ele>241</ele>
        <time>2022-03-30T22:25:34Z</time>
      </trkpt>
      <trkpt lat="45.78969" lon="5.67652">
        <ele>242</ele>
        <time>2022-03-30T22:25:40Z</time>
      </trkpt>
      <trkpt lat="45.78959" lon="5.67643">
        <ele>243</ele>
        <time>2022-03-30T22:25:42Z</time>
      </trkpt>
      <trkpt lat="45.78942" lon="5.67617">
        <ele>246</ele>
        <time>2022-03-30T22:25:48Z</time>
      </trkpt>
      <trkpt lat="45.7893" lon="5.67607">
        <ele>247</ele>
        <time>2022-03-30T22:25:51Z</time>
      </trkpt>
      <trkpt lat="45.78889" lon="5.67586">
        <ele>247</ele>
        <time>2022-03-30T22:26:02Z</time>
      </trkpt>
      <trkpt lat="45.78862" lon="5.67557">
        <ele>248</ele>
        <time>2022-03-30T22:26:09Z</time>
      </trkpt>
      <trkpt lat="45.78858" lon="5.67545">
        <ele>249</ele>
        <time>2022-03-30T22:26:12Z</time>
      </trkpt>
      <trkpt lat="45.78852" lon="5.67536">
        <ele>250</ele>
        <time>2022-03-30T22:26:14Z</time>
      </trkpt>
      <trkpt lat="45.78819" lon="5.67515">
        <ele>250</ele>
        <time>2022-03-30T22:26:22Z</time>
      </trkpt>
      <trkpt lat="45.78808" lon="5.67504">
        <ele>250</ele>
        <time>2022-03-30T22:26:25Z</time>
      </trkpt>
      <trkpt lat="45.78806" lon="5.67493">
        <ele>251</ele>
        <time>2022-03-30T22:26:27Z</time>
      </trkpt>
      <trkpt lat="45.78814" lon="5.67487">
        <ele>253</ele>
        <time>2022-03-30T22:26:29Z</time>
      </trkpt>
      <trkpt lat="45.78824" lon="5.67488">
        <ele>254</ele>
        <time>2022-03-30T22:26:32Z</time>
      </trkpt>
      <trkpt lat="45.78857" lon="5.67502">
        <ele>254</ele>
        <time>2022-03-30T22:26:40Z</time>
      </trkpt>
      <trkpt lat="45.78869" lon="5.67504">
        <ele>254</ele>
        <time>2022-03-30T22:26:42Z</time>
      </trkpt>
      <trkpt lat="45.78879" lon="5.67501">
        <ele>255</ele>
        <time>2022-03-30T22:26:45Z</time>
      </trkpt>
      <trkpt lat="45.78888" lon="5.67493">
        <ele>256</ele>
        <time>2022-03-30T22:26:47Z</time>
      </trkpt>
      <trkpt lat="45.78904" lon="5.67475">
        <ele>259</ele>
        <time>2022-03-30T22:26:52Z</time>
      </trkpt>
      <trkpt lat="45.7891" lon="5.67463">
        <ele>260</ele>
        <time>2022-03-30T22:26:54Z</time>
      </trkpt>
      <trkpt lat="45.7892" lon="5.67406">
        <ele>265</ele>
        <time>2022-03-30T22:27:04Z</time>
      </trkpt>
      <trkpt lat="45.7892" lon="5.67384">
        <ele>267</ele>
        <time>2022-03-30T22:27:08Z</time>
      </trkpt>
      <trkpt lat="45.78915" lon="5.67366">
        <ele>267</ele>
        <time>2022-03-30T22:27:11Z</time>
      </trkpt>
      <trkpt lat="45.78914" lon="5.6735">
        <ele>268</ele>
        <time>2022-03-30T22:27:13Z</time>
      </trkpt>
      <trkpt lat="45.78924" lon="5.67327">
        <ele>270</ele>
        <time>2022-03-30T22:27:18Z</time>
      </trkpt>
      <trkpt lat="45.78936" lon="5.67316">
        <ele>271</ele>
        <time>2022-03-30T22:27:21Z</time>
      </trkpt>
      <trkpt lat="45.78948" lon="5.67295">
        <ele>273</ele>
        <time>2022-03-30T22:27:25Z</time>
      </trkpt>
      <trkpt lat="45.78947" lon="5.67209">
        <ele>283</ele>
        <time>2022-03-30T22:27:39Z</time>
      </trkpt>
      <trkpt lat="45.78986" lon="5.67225">
        <ele>282</ele>
        <time>2022-03-30T22:27:49Z</time>
      </trkpt>
      <trkpt lat="45.79003" lon="5.67227">
        <ele>282</ele>
        <time>2022-03-30T22:27:53Z</time>
      </trkpt>
      <trkpt lat="45.7905" lon="5.67219">
        <ele>283</ele>
        <time>2022-03-30T22:28:04Z</time>
      </trkpt>
      <trkpt lat="45.7908" lon="5.67208">
        <ele>284</ele>
        <time>2022-03-30T22:28:11Z</time>
      </trkpt>
      <trkpt lat="45.79091" lon="5.67196">
        <ele>285</ele>
        <time>2022-03-30T22:28:14Z</time>
      </trkpt>
      <trkpt lat="45.79117" lon="5.67184">
        <ele>285</ele>
        <time>2022-03-30T22:28:21Z</time>
      </trkpt>
      <trkpt lat="45.79142" lon="5.67149">
        <ele>285</ele>
        <time>2022-03-30T22:28:29Z</time>
      </trkpt>
      <trkpt lat="45.79146" lon="5.67135">
        <ele>286</ele>
        <time>2022-03-30T22:28:31Z</time>
      </trkpt>
      <trkpt lat="45.79173" lon="5.67099">
        <ele>283</ele>
        <time>2022-03-30T22:28:40Z</time>
      </trkpt>
      <trkpt lat="45.7918" lon="5.6708">
        <ele>283</ele>
        <time>2022-03-30T22:28:44Z</time>
      </trkpt>
      <trkpt lat="45.79178" lon="5.67065">
        <ele>284</ele>
        <time>2022-03-30T22:28:46Z</time>
      </trkpt>
      <trkpt lat="45.79172" lon="5.6705">
        <ele>286</ele>
        <time>2022-03-30T22:28:49Z</time>
      </trkpt>
      <trkpt lat="45.79174" lon="5.67034">
        <ele>286</ele>
        <time>2022-03-30T22:28:52Z</time>
      </trkpt>
      <trkpt lat="45.79182" lon="5.67006">
        <ele>287</ele>
        <time>2022-03-30T22:28:56Z</time>
      </trkpt>
      <trkpt lat="45.79183" lon="5.66962">
        <ele>289</ele>
        <time>2022-03-30T22:29:04Z</time>
      </trkpt>
      <trkpt lat="45.79197" lon="5.66937">
        <ele>289</ele>
        <time>2022-03-30T22:29:09Z</time>
      </trkpt>
      <trkpt lat="45.79197" lon="5.66904">
        <ele>290</ele>
        <time>2022-03-30T22:29:14Z</time>
      </trkpt>
      <trkpt lat="45.79194" lon="5.6689">
        <ele>290</ele>
        <time>2022-03-30T22:29:17Z</time>
      </trkpt>
      <trkpt lat="45.79176" lon="5.66846">
        <ele>292</ele>
        <time>2022-03-30T22:29:25Z</time>
      </trkpt>
      <trkpt lat="45.79174" lon="5.66831">
        <ele>292</ele>
        <time>2022-03-30T22:29:27Z</time>
      </trkpt>
      <trkpt lat="45.79176" lon="5.66778">
        <ele>293</ele>
        <time>2022-03-30T22:29:36Z</time>
      </trkpt>
      <trkpt lat="45.79174" lon="5.66762">
        <ele>293</ele>
        <time>2022-03-30T22:29:39Z</time>
      </trkpt>
      <trkpt lat="45.79159" lon="5.66718">
        <ele>294</ele>
        <time>2022-03-30T22:29:47Z</time>
      </trkpt>
      <trkpt lat="45.79152" lon="5.66704">
        <ele>294</ele>
        <time>2022-03-30T22:29:49Z</time>
      </trkpt>
      <trkpt lat="45.79153" lon="5.66688">
        <ele>293</ele>
        <time>2022-03-30T22:29:52Z</time>
      </trkpt>
      <trkpt lat="45.79172" lon="5.66674">
        <ele>291</ele>
        <time>2022-03-30T22:29:57Z</time>
      </trkpt>
      <trkpt lat="45.79179" lon="5.66662">
        <ele>290</ele>
        <time>2022-03-30T22:30:00Z</time>
      </trkpt>
      <trkpt lat="45.7918" lon="5.66644">
        <ele>291</ele>
        <time>2022-03-30T22:30:03Z</time>
      </trkpt>
      <trkpt lat="45.79176" lon="5.66629">
        <ele>291</ele>
        <time>2022-03-30T22:30:05Z</time>
      </trkpt>
      <trkpt lat="45.79188" lon="5.66596">
        <ele>291</ele>
        <time>2022-03-30T22:30:11Z</time>
      </trkpt>
      <trkpt lat="45.79203" lon="5.66574">
        <ele>290</ele>
        <time>2022-03-30T22:30:16Z</time>
      </trkpt>
      <trkpt lat="45.79205" lon="5.66557">
        <ele>289</ele>
        <time>2022-03-30T22:30:19Z</time>
      </trkpt>
      <trkpt lat="45.79204" lon="5.66539">
        <ele>289</ele>
        <time>2022-03-30T22:30:22Z</time>
      </trkpt>
      <trkpt lat="45.79213" lon="5.66527">
        <ele>288</ele>
        <time>2022-03-30T22:30:25Z</time>
      </trkpt>
      <trkpt lat="45.79234" lon="5.66534">
        <ele>287</ele>
        <time>2022-03-30T22:30:30Z</time>
      </trkpt>
      <trkpt lat="45.79274" lon="5.66535">
        <ele>284</ele>
        <time>2022-03-30T22:30:39Z</time>
      </trkpt>
      <trkpt lat="45.79287" lon="5.6653">
        <ele>284</ele>
        <time>2022-03-30T22:30:42Z</time>
      </trkpt>
      <trkpt lat="45.79301" lon="5.66529">
        <ele>283</ele>
        <time>2022-03-30T22:30:46Z</time>
      </trkpt>
      <trkpt lat="45.79323" lon="5.66519">
        <ele>282</ele>
        <time>2022-03-30T22:30:51Z</time>
      </trkpt>
      <trkpt lat="45.7935" lon="5.66517">
        <ele>281</ele>
        <time>2022-03-30T22:30:57Z</time>
      </trkpt>
      <trkpt lat="45.79363" lon="5.66511">
        <ele>280</ele>
        <time>2022-03-30T22:31:01Z</time>
      </trkpt>
      <trkpt lat="45.79371" lon="5.66496">
        <ele>279</ele>
        <time>2022-03-30T22:31:04Z</time>
      </trkpt>
      <trkpt lat="45.79369" lon="5.66479">
        <ele>279</ele>
        <time>2022-03-30T22:31:06Z</time>
      </trkpt>
      <trkpt lat="45.79381" lon="5.66459">
        <ele>278</ele>
        <time>2022-03-30T22:31:11Z</time>
      </trkpt>
      <trkpt lat="45.79402" lon="5.66448">
        <ele>278</ele>
        <time>2022-03-30T22:31:16Z</time>
      </trkpt>
      <trkpt lat="45.79448" lon="5.66448">
        <ele>277</ele>
        <time>2022-03-30T22:31:27Z</time>
      </trkpt>
      <trkpt lat="45.79459" lon="5.66439">
        <ele>277</ele>
        <time>2022-03-30T22:31:30Z</time>
      </trkpt>
      <trkpt lat="45.79469" lon="5.66436">
        <ele>276</ele>
        <time>2022-03-30T22:31:32Z</time>
      </trkpt>
      <trkpt lat="45.79477" lon="5.66441">
        <ele>276</ele>
        <time>2022-03-30T22:31:34Z</time>
      </trkpt>
      <trkpt lat="45.79488" lon="5.66444">
        <ele>276</ele>
        <time>2022-03-30T22:31:37Z</time>
      </trkpt>
      <trkpt lat="45.79499" lon="5.66433">
        <ele>276</ele>
        <time>2022-03-30T22:31:40Z</time>
      </trkpt>
      <trkpt lat="45.7952" lon="5.66418">
        <ele>276</ele>
        <time>2022-03-30T22:31:45Z</time>
      </trkpt>
      <trkpt lat="45.79549" lon="5.66405">
        <ele>277</ele>
        <time>2022-03-30T22:31:52Z</time>
      </trkpt>
      <trkpt lat="45.79562" lon="5.66395">
        <ele>277</ele>
        <time>2022-03-30T22:31:56Z</time>
      </trkpt>
      <trkpt lat="45.79574" lon="5.66369">
        <ele>279</ele>
        <time>2022-03-30T22:32:01Z</time>
      </trkpt>
      <trkpt lat="45.79576" lon="5.66355">
        <ele>280</ele>
        <time>2022-03-30T22:32:03Z</time>
      </trkpt>
      <trkpt lat="45.7964" lon="5.66403">
        <ele>281</ele>
        <time>2022-03-30T22:32:20Z</time>
      </trkpt>
      <trkpt lat="45.79653" lon="5.66404">
        <ele>282</ele>
        <time>2022-03-30T22:32:23Z</time>
      </trkpt>
      <trkpt lat="45.79646" lon="5.66371">
        <ele>285</ele>
        <time>2022-03-30T22:32:29Z</time>
      </trkpt>
      <trkpt lat="45.79623" lon="5.66336">
        <ele>286</ele>
        <time>2022-03-30T22:32:37Z</time>
      </trkpt>
      <trkpt lat="45.79591" lon="5.66277">
        <ele>291</ele>
        <time>2022-03-30T22:32:49Z</time>
      </trkpt>
      <trkpt lat="45.79569" lon="5.66243">
        <ele>295</ele>
        <time>2022-03-30T22:32:56Z</time>
      </trkpt>
      <trkpt lat="45.79482" lon="5.662">
        <ele>295</ele>
        <time>2022-03-30T22:33:18Z</time>
      </trkpt>
      <trkpt lat="45.79465" lon="5.66187">
        <ele>295</ele>
        <time>2022-03-30T22:33:22Z</time>
      </trkpt>
      <trkpt lat="45.79456" lon="5.66177">
        <ele>295</ele>
        <time>2022-03-30T22:33:25Z</time>
      </trkpt>
      <trkpt lat="45.7945" lon="5.66166">
        <ele>296</ele>
        <time>2022-03-30T22:33:27Z</time>
      </trkpt>
      <trkpt lat="45.79437" lon="5.66113">
        <ele>299</ele>
        <time>2022-03-30T22:33:36Z</time>
      </trkpt>
      <trkpt lat="45.79432" lon="5.66085">
        <ele>300</ele>
        <time>2022-03-30T22:33:41Z</time>
      </trkpt>
      <trkpt lat="45.79431" lon="5.66041">
        <ele>302</ele>
        <time>2022-03-30T22:33:48Z</time>
      </trkpt>
      <trkpt lat="45.79427" lon="5.66011">
        <ele>303</ele>
        <time>2022-03-30T22:33:53Z</time>
      </trkpt>
      <trkpt lat="45.79424" lon="5.65997">
        <ele>304</ele>
        <time>2022-03-30T22:33:56Z</time>
      </trkpt>
      <trkpt lat="45.7941" lon="5.65968">
        <ele>303</ele>
        <time>2022-03-30T22:34:01Z</time>
      </trkpt>
      <trkpt lat="45.79404" lon="5.65922">
        <ele>304</ele>
        <time>2022-03-30T22:34:09Z</time>
      </trkpt>
      <trkpt lat="45.79406" lon="5.65904">
        <ele>305</ele>
        <time>2022-03-30T22:34:12Z</time>
      </trkpt>
      <trkpt lat="45.79412" lon="5.6588">
        <ele>306</ele>
        <time>2022-03-30T22:34:16Z</time>
      </trkpt>
      <trkpt lat="45.79426" lon="5.65843">
        <ele>308</ele>
        <time>2022-03-30T22:34:23Z</time>
      </trkpt>
      <trkpt lat="45.7945" lon="5.65729">
        <ele>312</ele>
        <time>2022-03-30T22:34:42Z</time>
      </trkpt>
      <trkpt lat="45.79456" lon="5.65712">
        <ele>313</ele>
        <time>2022-03-30T22:34:45Z</time>
      </trkpt>
      <trkpt lat="45.79496" lon="5.65654">
        <ele>316</ele>
        <time>2022-03-30T22:34:59Z</time>
      </trkpt>
      <trkpt lat="45.79495" lon="5.65641">
        <ele>316</ele>
        <time>2022-03-30T22:35:01Z</time>
      </trkpt>
      <trkpt lat="45.7948" lon="5.65589">
        <ele>318</ele>
        <time>2022-03-30T22:35:10Z</time>
      </trkpt>
      <trkpt lat="45.79468" lon="5.65559">
        <ele>318</ele>
        <time>2022-03-30T22:35:16Z</time>
      </trkpt>
      <trkpt lat="45.79462" lon="5.65534">
        <ele>318</ele>
        <time>2022-03-30T22:35:20Z</time>
      </trkpt>
      <trkpt lat="45.79446" lon="5.65499">
        <ele>319</ele>
        <time>2022-03-30T22:35:27Z</time>
      </trkpt>
      <trkpt lat="45.79476" lon="5.65465">
        <ele>318</ele>
        <time>2022-03-30T22:35:36Z</time>
      </trkpt>
      <trkpt lat="45.79519" lon="5.65435">
        <ele>316</ele>
        <time>2022-03-30T22:35:47Z</time>
      </trkpt>
      <trkpt lat="45.79557" lon="5.65412">
        <ele>316</ele>
        <time>2022-03-30T22:35:56Z</time>
      </trkpt>
      <trkpt lat="45.79603" lon="5.65379">
        <ele>315</ele>
        <time>2022-03-30T22:36:09Z</time>
      </trkpt>
      <trkpt lat="45.79631" lon="5.65355">
        <ele>314</ele>
        <time>2022-03-30T22:36:16Z</time>
      </trkpt>
      <trkpt lat="45.79655" lon="5.6534">
        <ele>314</ele>
        <time>2022-03-30T22:36:22Z</time>
      </trkpt>
      <trkpt lat="45.79675" lon="5.65323">
        <ele>316</ele>
        <time>2022-03-30T22:36:28Z</time>
      </trkpt>
      <trkpt lat="45.79689" lon="5.65327">
        <ele>318</ele>
        <time>2022-03-30T22:36:31Z</time>
      </trkpt>
      <trkpt lat="45.79698" lon="5.65323">
        <ele>320</ele>
        <time>2022-03-30T22:36:33Z</time>
      </trkpt>
      <trkpt lat="45.79731" lon="5.65292">
        <ele>325</ele>
        <time>2022-03-30T22:36:42Z</time>
      </trkpt>
      <trkpt lat="45.79765" lon="5.65255">
        <ele>329</ele>
        <time>2022-03-30T22:36:52Z</time>
      </trkpt>
      <trkpt lat="45.79779" lon="5.6525">
        <ele>330</ele>
        <time>2022-03-30T22:36:56Z</time>
      </trkpt>
      <trkpt lat="45.7979" lon="5.65251">
        <ele>332</ele>
        <time>2022-03-30T22:36:58Z</time>
      </trkpt>
      <trkpt lat="45.79795" lon="5.65258">
        <ele>333</ele>
        <time>2022-03-30T22:37:00Z</time>
      </trkpt>
      <trkpt lat="45.79794" lon="5.65272">
        <ele>333</ele>
        <time>2022-03-30T22:37:02Z</time>
      </trkpt>
      <trkpt lat="45.7978" lon="5.65325">
        <ele>333</ele>
        <time>2022-03-30T22:37:11Z</time>
      </trkpt>
      <trkpt lat="45.79801" lon="5.65373">
        <ele>335</ele>
        <time>2022-03-30T22:37:21Z</time>
      </trkpt>
      <trkpt lat="45.79826" lon="5.65392">
        <ele>337</ele>
        <time>2022-03-30T22:37:27Z</time>
      </trkpt>
      <trkpt lat="45.79833" lon="5.65405">
        <ele>338</ele>
        <time>2022-03-30T22:37:30Z</time>
      </trkpt>
      <trkpt lat="45.79842" lon="5.65409">
        <ele>338</ele>
        <time>2022-03-30T22:37:32Z</time>
      </trkpt>
      <trkpt lat="45.79853" lon="5.65409">
        <ele>339</ele>
        <time>2022-03-30T22:37:35Z</time>
      </trkpt>
      <trkpt lat="45.79885" lon="5.65403">
        <ele>343</ele>
        <time>2022-03-30T22:37:42Z</time>
      </trkpt>
      <trkpt lat="45.799" lon="5.65403">
        <ele>344</ele>
        <time>2022-03-30T22:37:46Z</time>
      </trkpt>
      <trkpt lat="45.79946" lon="5.65412">
        <ele>348</ele>
        <time>2022-03-30T22:37:57Z</time>
      </trkpt>
      <trkpt lat="45.80002" lon="5.65443">
        <ele>352</ele>
        <time>2022-03-30T22:38:11Z</time>
      </trkpt>
      <trkpt lat="45.80005" lon="5.65449">
        <ele>352</ele>
        <time>2022-03-30T22:38:12Z</time>
      </trkpt>
      <trkpt lat="45.79996" lon="5.65534">
        <ele>346</ele>
        <time>2022-03-30T22:38:26Z</time>
      </trkpt>
      <trkpt lat="45.80017" lon="5.65579">
        <ele>343</ele>
        <time>2022-03-30T22:38:35Z</time>
      </trkpt>
      <trkpt lat="45.80025" lon="5.65612">
        <ele>340</ele>
        <time>2022-03-30T22:38:40Z</time>
      </trkpt>
      <trkpt lat="45.80047" lon="5.65671">
        <ele>336</ele>
        <time>2022-03-30T22:38:51Z</time>
      </trkpt>
      <trkpt lat="45.80057" lon="5.65738">
        <ele>333</ele>
        <time>2022-03-30T22:39:02Z</time>
      </trkpt>
      <trkpt lat="45.80065" lon="5.65756">
        <ele>333</ele>
        <time>2022-03-30T22:39:06Z</time>
      </trkpt>
      <trkpt lat="45.80072" lon="5.65795">
        <ele>332</ele>
        <time>2022-03-30T22:39:12Z</time>
      </trkpt>
      <trkpt lat="45.80077" lon="5.65808">
        <ele>332</ele>
        <time>2022-03-30T22:39:15Z</time>
      </trkpt>
      <trkpt lat="45.80101" lon="5.65804">
        <ele>335</ele>
        <time>2022-03-30T22:39:20Z</time>
      </trkpt>
      <trkpt lat="45.80108" lon="5.65807">
        <ele>335</ele>
        <time>2022-03-30T22:39:22Z</time>
      </trkpt>
      <trkpt lat="45.80112" lon="5.65837">
        <ele>335</ele>
        <time>2022-03-30T22:39:27Z</time>
      </trkpt>
      <trkpt lat="45.80119" lon="5.65845">
        <ele>335</ele>
        <time>2022-03-30T22:39:29Z</time>
      </trkpt>
      <trkpt lat="45.80151" lon="5.6587">
        <ele>337</ele>
        <time>2022-03-30T22:39:38Z</time>
      </trkpt>
      <trkpt lat="45.80165" lon="5.65874">
        <ele>337</ele>
        <time>2022-03-30T22:39:41Z</time>
      </trkpt>
      <trkpt lat="45.80193" lon="5.65872">
        <ele>338</ele>
        <time>2022-03-30T22:39:48Z</time>
      </trkpt>
      <trkpt lat="45.80204" lon="5.65869">
        <ele>339</ele>
        <time>2022-03-30T22:39:50Z</time>
      </trkpt>
      <trkpt lat="45.80253" lon="5.65873">
        <ele>340</ele>
        <time>2022-03-30T22:40:02Z</time>
      </trkpt>
      <trkpt lat="45.80268" lon="5.65837">
        <ele>343</ele>
        <time>2022-03-30T22:40:09Z</time>
      </trkpt>
      <trkpt lat="45.80274" lon="5.65788">
        <ele>347</ele>
        <time>2022-03-30T22:40:17Z</time>
      </trkpt>
      <trkpt lat="45.80265" lon="5.65758">
        <ele>349</ele>
        <time>2022-03-30T22:40:22Z</time>
      </trkpt>
      <trkpt lat="45.80258" lon="5.65715">
        <ele>351</ele>
        <time>2022-03-30T22:40:29Z</time>
      </trkpt>
      <trkpt lat="45.80252" lon="5.65606">
        <ele>357</ele>
        <time>2022-03-30T22:40:47Z</time>
      </trkpt>
      <trkpt lat="45.80243" lon="5.6555">
        <ele>360</ele>
        <time>2022-03-30T22:40:56Z</time>
      </trkpt>
      <trkpt lat="45.80244" lon="5.65537">
        <ele>361</ele>
        <time>2022-03-30T22:40:58Z</time>
      </trkpt>
      <trkpt lat="45.80248" lon="5.65526">
        <ele>361</ele>
        <time>2022-03-30T22:41:00Z</time>
      </trkpt>
      <trkpt lat="45.80255" lon="5.65518">
        <ele>362</ele>
        <time>2022-03-30T22:41:03Z</time>
      </trkpt>
      <trkpt lat="45.80274" lon="5.65505">
        <ele>365</ele>
        <time>2022-03-30T22:41:07Z</time>
      </trkpt>
      <trkpt lat="45.8028" lon="5.65481">
        <ele>367</ele>
        <time>2022-03-30T22:41:12Z</time>
      </trkpt>
      <trkpt lat="45.8028" lon="5.65468">
        <ele>367</ele>
        <time>2022-03-30T22:41:14Z</time>
      </trkpt>
      <trkpt lat="45.80285" lon="5.65443">
        <ele>369</ele>
        <time>2022-03-30T22:41:18Z</time>
      </trkpt>
      <trkpt lat="45.80292" lon="5.65432">
        <ele>370</ele>
        <time>2022-03-30T22:41:20Z</time>
      </trkpt>
      <trkpt lat="45.8033" lon="5.6533">
        <ele>369</ele>
        <time>2022-03-30T22:41:39Z</time>
      </trkpt>
      <trkpt lat="45.80387" lon="5.65248">
        <ele>370</ele>
        <time>2022-03-30T22:41:58Z</time>
      </trkpt>
      <trkpt lat="45.80434" lon="5.65167">
        <ele>371</ele>
        <time>2022-03-30T22:42:15Z</time>
      </trkpt>
      <trkpt lat="45.80451" lon="5.65125">
        <ele>371</ele>
        <time>2022-03-30T22:42:23Z</time>
      </trkpt>
      <trkpt lat="45.80458" lon="5.65101">
        <ele>370</ele>
        <time>2022-03-30T22:42:27Z</time>
      </trkpt>
      <trkpt lat="45.80481" lon="5.6501">
        <ele>369</ele>
        <time>2022-03-30T22:42:43Z</time>
      </trkpt>
      <trkpt lat="45.80477" lon="5.65012">
        <ele>369</ele>
        <time>2022-03-30T22:42:44Z</time>
      </trkpt>
      <trkpt lat="45.80516" lon="5.64962">
        <ele>367</ele>
        <time>2022-03-30T22:42:56Z</time>
      </trkpt>
      <trkpt lat="45.80544" lon="5.64921">
        <ele>364</ele>
        <time>2022-03-30T22:43:06Z</time>
      </trkpt>
      <trkpt lat="45.80563" lon="5.64878">
        <ele>361</ele>
        <time>2022-03-30T22:43:14Z</time>
      </trkpt>
      <trkpt lat="45.80576" lon="5.64855">
        <ele>360</ele>
        <time>2022-03-30T22:43:19Z</time>
      </trkpt>
      <trkpt lat="45.8065" lon="5.6476">
        <ele>356</ele>
        <time>2022-03-30T22:43:42Z</time>
      </trkpt>
      <trkpt lat="45.80619" lon="5.64668">
        <ele>351</ele>
        <time>2022-03-30T22:43:59Z</time>
      </trkpt>
      <trkpt lat="45.80622" lon="5.64577">
        <ele>346</ele>
        <time>2022-03-30T22:44:13Z</time>
      </trkpt>
      <trkpt lat="45.8065" lon="5.64522">
        <ele>342</ele>
        <time>2022-03-30T22:44:25Z</time>
      </trkpt>
      <trkpt lat="45.80667" lon="5.6441">
        <ele>336</ele>
        <time>2022-03-30T22:44:43Z</time>
      </trkpt>
      <trkpt lat="45.80693" lon="5.64376">
        <ele>335</ele>
        <time>2022-03-30T22:44:51Z</time>
      </trkpt>
      <trkpt lat="45.80695" lon="5.64367">
        <ele>335</ele>
        <time>2022-03-30T22:44:53Z</time>
      </trkpt>
      <trkpt lat="45.80695" lon="5.6433">
        <ele>333</ele>
        <time>2022-03-30T22:44:59Z</time>
      </trkpt>
      <trkpt lat="45.80685" lon="5.64311">
        <ele>332</ele>
        <time>2022-03-30T22:45:03Z</time>
      </trkpt>
      <trkpt lat="45.8066" lon="5.64324">
        <ele>332</ele>
        <time>2022-03-30T22:45:09Z</time>
      </trkpt>
      <trkpt lat="45.80649" lon="5.64319">
        <ele>332</ele>
        <time>2022-03-30T22:45:12Z</time>
      </trkpt>
      <trkpt lat="45.80571" lon="5.64312">
        <ele>334</ele>
        <time>2022-03-30T22:45:30Z</time>
      </trkpt>
      <trkpt lat="45.80554" lon="5.64315">
        <ele>333</ele>
        <time>2022-03-30T22:45:34Z</time>
      </trkpt>
      <trkpt lat="45.80511" lon="5.64337">
        <ele>332</ele>
        <time>2022-03-30T22:45:45Z</time>
      </trkpt>
      <trkpt lat="45.80507" lon="5.64324">
        <ele>333</ele>
        <time>2022-03-30T22:45:47Z</time>
      </trkpt>
      <trkpt lat="45.80473" lon="5.64302">
        <ele>334</ele>
        <time>2022-03-30T22:45:56Z</time>
      </trkpt>
      <trkpt lat="45.80413" lon="5.64276">
        <ele>335</ele>
        <time>2022-03-30T22:46:10Z</time>
      </trkpt>
      <trkpt lat="45.80369" lon="5.64254">
        <ele>336</ele>
        <time>2022-03-30T22:46:21Z</time>
      </trkpt>
      <trkpt lat="45.80334" lon="5.64244">
        <ele>336</ele>
        <time>2022-03-30T22:46:30Z</time>
      </trkpt>
      <trkpt lat="45.80277" lon="5.64255">
        <ele>339</ele>
        <time>2022-03-30T22:46:43Z</time>
      </trkpt>
      <trkpt lat="45.80217" lon="5.64256">
        <ele>342</ele>
        <time>2022-03-30T22:46:57Z</time>
      </trkpt>
      <trkpt lat="45.802" lon="5.64269">
        <ele>340</ele>
        <time>2022-03-30T22:47:01Z</time>
      </trkpt>
      <trkpt lat="45.80181" lon="5.64271">
        <ele>341</ele>
        <time>2022-03-30T22:47:06Z</time>
      </trkpt>
      <trkpt lat="45.80173" lon="5.6427">
        <ele>342</ele>
        <time>2022-03-30T22:47:08Z</time>
      </trkpt>
      <trkpt lat="45.80157" lon="5.64254">
        <ele>345</ele>
        <time>2022-03-30T22:47:12Z</time>
      </trkpt>
      <trkpt lat="45.80142" lon="5.64252">
        <ele>346</ele>
        <time>2022-03-30T22:47:16Z</time>
      </trkpt>
      <trkpt lat="45.80115" lon="5.64255">
        <ele>346</ele>
        <time>2022-03-30T22:47:22Z</time>
      </trkpt>
      <trkpt lat="45.80071" lon="5.64275">
        <ele>345</ele>
        <time>2022-03-30T22:47:33Z</time>
      </trkpt>
      <trkpt lat="45.80045" lon="5.64284">
        <ele>346</ele>
        <time>2022-03-30T22:47:39Z</time>
      </trkpt>
      <trkpt lat="45.79956" lon="5.64308">
        <ele>349</ele>
        <time>2022-03-30T22:48:00Z</time>
      </trkpt>
      <trkpt lat="45.79933" lon="5.64314">
        <ele>350</ele>
        <time>2022-03-30T22:48:06Z</time>
      </trkpt>
      <trkpt lat="45.79863" lon="5.64323">
        <ele>354</ele>
        <time>2022-03-30T22:48:22Z</time>
      </trkpt>
      <trkpt lat="45.79829" lon="5.6433">
        <ele>356</ele>
        <time>2022-03-30T22:48:30Z</time>
      </trkpt>
      <trkpt lat="45.798" lon="5.64343">
        <ele>353</ele>
        <time>2022-03-30T22:48:37Z</time>
      </trkpt>
      <trkpt lat="45.79784" lon="5.64359">
        <ele>351</ele>
        <time>2022-03-30T22:48:42Z</time>
      </trkpt>
      <trkpt lat="45.79759" lon="5.64358">
        <ele>350</ele>
        <time>2022-03-30T22:48:48Z</time>
      </trkpt>
      <trkpt lat="45.79685" lon="5.64341">
        <ele>347</ele>
        <time>2022-03-30T22:49:05Z</time>
      </trkpt>
      <trkpt lat="45.79622" lon="5.64336">
        <ele>347</ele>
        <time>2022-03-30T22:49:20Z</time>
      </trkpt>
      <trkpt lat="45.79607" lon="5.64337">
        <ele>347</ele>
        <time>2022-03-30T22:49:24Z</time>
      </trkpt>
      <trkpt lat="45.79597" lon="5.64345">
        <ele>347</ele>
        <time>2022-03-30T22:49:26Z</time>
      </trkpt>
      <trkpt lat="45.79586" lon="5.6435">
        <ele>347</ele>
        <time>2022-03-30T22:49:29Z</time>
      </trkpt>
      <trkpt lat="45.79556" lon="5.64356">
        <ele>346</ele>
        <time>2022-03-30T22:49:36Z</time>
      </trkpt>
      <trkpt lat="45.7951" lon="5.64346">
        <ele>347</ele>
        <time>2022-03-30T22:49:47Z</time>
      </trkpt>
      <trkpt lat="45.79489" lon="5.64344">
        <ele>347</ele>
        <time>2022-03-30T22:49:52Z</time>
      </trkpt>
      <trkpt lat="45.79462" lon="5.64332">
        <ele>348</ele>
        <time>2022-03-30T22:49:58Z</time>
      </trkpt>
      <trkpt lat="45.79431" lon="5.64333">
        <ele>347</ele>
        <time>2022-03-30T22:50:06Z</time>
      </trkpt>
      <trkpt lat="45.79424" lon="5.64305">
        <ele>349</ele>
        <time>2022-03-30T22:50:10Z</time>
      </trkpt>
      <trkpt lat="45.79416" lon="5.64293">
        <ele>350</ele>
        <time>2022-03-30T22:50:13Z</time>
      </trkpt>
      <trkpt lat="45.79413" lon="5.6428">
        <ele>351</ele>
        <time>2022-03-30T22:50:15Z</time>
      </trkpt>
      <trkpt lat="45.79415" lon="5.64234">
        <ele>354</ele>
        <time>2022-03-30T22:50:23Z</time>
      </trkpt>
      <trkpt lat="45.79407" lon="5.64206">
        <ele>355</ele>
        <time>2022-03-30T22:50:28Z</time>
      </trkpt>
      <trkpt lat="45.79401" lon="5.64194">
        <ele>355</ele>
        <time>2022-03-30T22:50:30Z</time>
      </trkpt>
      <trkpt lat="45.79343" lon="5.64132">
        <ele>359</ele>
        <time>2022-03-30T22:50:47Z</time>
      </trkpt>
      <trkpt lat="45.79334" lon="5.6413">
        <ele>359</ele>
        <time>2022-03-30T22:50:49Z</time>
      </trkpt>
      <trkpt lat="45.79287" lon="5.64131">
        <ele>359</ele>
        <time>2022-03-30T22:51:00Z</time>
      </trkpt>
      <trkpt lat="45.79271" lon="5.64129">
        <ele>359</ele>
        <time>2022-03-30T22:51:04Z</time>
      </trkpt>
      <trkpt lat="45.79242" lon="5.64132">
        <ele>359</ele>
        <time>2022-03-30T22:51:11Z</time>
      </trkpt>
      <trkpt lat="45.79201" lon="5.6412">
        <ele>357</ele>
        <time>2022-03-30T22:51:20Z</time>
      </trkpt>
      <trkpt lat="45.79182" lon="5.64111">
        <ele>357</ele>
        <time>2022-03-30T22:51:25Z</time>
      </trkpt>
      <trkpt lat="45.79137" lon="5.64082">
        <ele>357</ele>
        <time>2022-03-30T22:51:37Z</time>
      </trkpt>
      <trkpt lat="45.791" lon="5.64052">
        <ele>356</ele>
        <time>2022-03-30T22:51:47Z</time>
      </trkpt>
      <trkpt lat="45.79072" lon="5.64021">
        <ele>358</ele>
        <time>2022-03-30T22:51:55Z</time>
      </trkpt>
      <trkpt lat="45.79033" lon="5.63997">
        <ele>362</ele>
        <time>2022-03-30T22:52:05Z</time>
      </trkpt>
      <trkpt lat="45.79018" lon="5.63986">
        <ele>362</ele>
        <time>2022-03-30T22:52:09Z</time>
      </trkpt>
      <trkpt lat="45.79005" lon="5.63971">
        <ele>362</ele>
        <time>2022-03-30T22:52:13Z</time>
      </trkpt>
      <trkpt lat="45.78967" lon="5.63944">
        <ele>360</ele>
        <time>2022-03-30T22:52:23Z</time>
      </trkpt>
      <trkpt lat="45.78958" lon="5.63945">
        <ele>361</ele>
        <time>2022-03-30T22:52:25Z</time>
      </trkpt>
      <trkpt lat="45.78862" lon="5.63978">
        <ele>363</ele>
        <time>2022-03-30T22:52:48Z</time>
      </trkpt>
      <trkpt lat="45.7885" lon="5.63985">
        <ele>363</ele>
        <time>2022-03-30T22:52:51Z</time>
      </trkpt>
      <trkpt lat="45.78808" lon="5.6402">
        <ele>363</ele>
        <time>2022-03-30T22:53:02Z</time>
      </trkpt>
      <trkpt lat="45.78779" lon="5.64038">
        <ele>362</ele>
        <time>2022-03-30T22:53:09Z</time>
      </trkpt>
      <trkpt lat="45.78765" lon="5.64044">
        <ele>361</ele>
        <time>2022-03-30T22:53:13Z</time>
      </trkpt>
      <trkpt lat="45.78755" lon="5.64042">
        <ele>360</ele>
        <time>2022-03-30T22:53:15Z</time>
      </trkpt>
      <trkpt lat="45.78746" lon="5.64036">
        <ele>359</ele>
        <time>2022-03-30T22:53:18Z</time>
      </trkpt>
      <trkpt lat="45.78739" lon="5.64026">
        <ele>358</ele>
        <time>2022-03-30T22:53:20Z</time>
      </trkpt>
      <trkpt lat="45.78735" lon="5.64015">
        <ele>358</ele>
        <time>2022-03-30T22:53:22Z</time>
      </trkpt>
      <trkpt lat="45.78733" lon="5.64004">
        <ele>357</ele>
        <time>2022-03-30T22:53:24Z</time>
      </trkpt>
      <trkpt lat="45.78735" lon="5.63976">
        <ele>355</ele>
        <time>2022-03-30T22:53:28Z</time>
      </trkpt>
      <trkpt lat="45.78732" lon="5.63961">
        <ele>355</ele>
        <time>2022-03-30T22:53:31Z</time>
      </trkpt>
      <trkpt lat="45.78726" lon="5.63949">
        <ele>354</ele>
        <time>2022-03-30T22:53:33Z</time>
      </trkpt>
      <trkpt lat="45.78714" lon="5.63945">
        <ele>353</ele>
        <time>2022-03-30T22:53:36Z</time>
      </trkpt>
      <trkpt lat="45.787" lon="5.63947">
        <ele>353</ele>
        <time>2022-03-30T22:53:39Z</time>
      </trkpt>
      <trkpt lat="45.78688" lon="5.63952">
        <ele>353</ele>
        <time>2022-03-30T22:53:42Z</time>
      </trkpt>
      <trkpt lat="45.78672" lon="5.63963">
        <ele>353</ele>
        <time>2022-03-30T22:53:46Z</time>
      </trkpt>
      <trkpt lat="45.78644" lon="5.63985">
        <ele>353</ele>
        <time>2022-03-30T22:53:54Z</time>
      </trkpt>
      <trkpt lat="45.78597" lon="5.64029">
        <ele>356</ele>
        <time>2022-03-30T22:54:07Z</time>
      </trkpt>
      <trkpt lat="45.78572" lon="5.64048">
        <ele>358</ele>
        <time>2022-03-30T22:54:14Z</time>
      </trkpt>
      <trkpt lat="45.78561" lon="5.64061">
        <ele>360</ele>
        <time>2022-03-30T22:54:17Z</time>
      </trkpt>
      <trkpt lat="45.78528" lon="5.64107">
        <ele>363</ele>
        <time>2022-03-30T22:54:28Z</time>
      </trkpt>
      <trkpt lat="45.78508" lon="5.64151">
        <ele>365</ele>
        <time>2022-03-30T22:54:36Z</time>
      </trkpt>
      <trkpt lat="45.78505" lon="5.64169">
        <ele>366</ele>
        <time>2022-03-30T22:54:39Z</time>
      </trkpt>
      <trkpt lat="45.7849" lon="5.64198">
        <ele>366</ele>
        <time>2022-03-30T22:54:45Z</time>
      </trkpt>
      <trkpt lat="45.78479" lon="5.64228">
        <ele>366</ele>
        <time>2022-03-30T22:54:51Z</time>
      </trkpt>
      <trkpt lat="45.78472" lon="5.6424">
        <ele>366</ele>
        <time>2022-03-30T22:54:53Z</time>
      </trkpt>
      <trkpt lat="45.78432" lon="5.64287">
        <ele>365</ele>
        <time>2022-03-30T22:55:05Z</time>
      </trkpt>
      <trkpt lat="45.78401" lon="5.6431">
        <ele>365</ele>
        <time>2022-03-30T22:55:13Z</time>
      </trkpt>
      <trkpt lat="45.7839" lon="5.64313">
        <ele>364</ele>
        <time>2022-03-30T22:55:16Z</time>
      </trkpt>
      <trkpt lat="45.7838" lon="5.6432">
        <ele>364</ele>
        <time>2022-03-30T22:55:19Z</time>
      </trkpt>
      <trkpt lat="45.78342" lon="5.64351">
        <ele>363</ele>
        <time>2022-03-30T22:55:29Z</time>
      </trkpt>
      <trkpt lat="45.78308" lon="5.64366">
        <ele>360</ele>
        <time>2022-03-30T22:55:37Z</time>
      </trkpt>
      <trkpt lat="45.7829" lon="5.64388">
        <ele>360</ele>
        <time>2022-03-30T22:55:43Z</time>
      </trkpt>
      <trkpt lat="45.78279" lon="5.64395">
        <ele>360</ele>
        <time>2022-03-30T22:55:46Z</time>
      </trkpt>
      <trkpt lat="45.78257" lon="5.64404">
        <ele>362</ele>
        <time>2022-03-30T22:55:51Z</time>
      </trkpt>
      <trkpt lat="45.78212" lon="5.64412">
        <ele>357</ele>
        <time>2022-03-30T22:56:01Z</time>
      </trkpt>
      <trkpt lat="45.782" lon="5.64418">
        <ele>356</ele>
        <time>2022-03-30T22:56:04Z</time>
      </trkpt>
      <trkpt lat="45.78188" lon="5.64428">
        <ele>353</ele>
        <time>2022-03-30T22:56:08Z</time>
      </trkpt>
      <trkpt lat="45.78173" lon="5.64445">
        <ele>348</ele>
        <time>2022-03-30T22:56:12Z</time>
      </trkpt>
      <trkpt lat="45.78163" lon="5.64447">
        <ele>347</ele>
        <time>2022-03-30T22:56:14Z</time>
      </trkpt>
      <trkpt lat="45.78151" lon="5.64456">
        <ele>346</ele>
        <time>2022-03-30T22:56:18Z</time>
      </trkpt>
      <trkpt lat="45.78142" lon="5.64451">
        <ele>346</ele>
        <time>2022-03-30T22:56:20Z</time>
      </trkpt>
      <trkpt lat="45.78144" lon="5.64434">
        <ele>347</ele>
        <time>2022-03-30T22:56:23Z</time>
      </trkpt>
      <trkpt lat="45.78155" lon="5.64406">
        <ele>349</ele>
        <time>2022-03-30T22:56:28Z</time>
      </trkpt>
      <trkpt lat="45.78154" lon="5.64389">
        <ele>347</ele>
        <time>2022-03-30T22:56:31Z</time>
      </trkpt>
      <trkpt lat="45.78142" lon="5.64389">
        <ele>346</ele>
        <time>2022-03-30T22:56:34Z</time>
      </trkpt>
      <trkpt lat="45.78127" lon="5.64395">
        <ele>345</ele>
        <time>2022-03-30T22:56:37Z</time>
      </trkpt>
      <trkpt lat="45.78103" lon="5.64413">
        <ele>344</ele>
        <time>2022-03-30T22:56:43Z</time>
      </trkpt>
      <trkpt lat="45.78052" lon="5.64434">
        <ele>343</ele>
        <time>2022-03-30T22:56:56Z</time>
      </trkpt>
      <trkpt lat="45.78038" lon="5.64427">
        <ele>343</ele>
        <time>2022-03-30T22:56:59Z</time>
      </trkpt>
      <trkpt lat="45.78027" lon="5.64401">
        <ele>344</ele>
        <time>2022-03-30T22:57:04Z</time>
      </trkpt>
      <trkpt lat="45.78014" lon="5.64394">
        <ele>345</ele>
        <time>2022-03-30T22:57:08Z</time>
      </trkpt>
      <trkpt lat="45.78001" lon="5.64366">
        <ele>347</ele>
        <time>2022-03-30T22:57:13Z</time>
      </trkpt>
      <trkpt lat="45.77983" lon="5.64338">
        <ele>349</ele>
        <time>2022-03-30T22:57:19Z</time>
      </trkpt>
      <trkpt lat="45.77949" lon="5.64314">
        <ele>350</ele>
        <time>2022-03-30T22:57:28Z</time>
      </trkpt>
      <trkpt lat="45.77935" lon="5.64292">
        <ele>351</ele>
        <time>2022-03-30T22:57:33Z</time>
      </trkpt>
      <trkpt lat="45.77902" lon="5.64315">
        <ele>349</ele>
        <time>2022-03-30T22:57:41Z</time>
      </trkpt>
      <trkpt lat="45.77891" lon="5.64314">
        <ele>348</ele>
        <time>2022-03-30T22:57:44Z</time>
      </trkpt>
      <trkpt lat="45.77834" lon="5.64344">
        <ele>343</ele>
        <time>2022-03-30T22:57:58Z</time>
      </trkpt>
      <trkpt lat="45.77802" lon="5.64349">
        <ele>345</ele>
        <time>2022-03-30T22:58:06Z</time>
      </trkpt>
      <trkpt lat="45.77676" lon="5.64411">
        <ele>347</ele>
        <time>2022-03-30T22:58:37Z</time>
      </trkpt>
      <trkpt lat="45.77609" lon="5.64451">
        <ele>351</ele>
        <time>2022-03-30T22:58:54Z</time>
      </trkpt>
      <trkpt lat="45.77565" lon="5.64466">
        <ele>353</ele>
        <time>2022-03-30T22:59:04Z</time>
      </trkpt>
      <trkpt lat="45.77479" lon="5.64518">
        <ele>351</ele>
        <time>2022-03-30T22:59:26Z</time>
      </trkpt>
      <trkpt lat="45.77358" lon="5.64579">
        <ele>341</ele>
        <time>2022-03-30T22:59:56Z</time>
      </trkpt>
      <trkpt lat="45.7724" lon="5.64643">
        <ele>327</ele>
        <time>2022-03-30T23:00:26Z</time>
      </trkpt>
      <trkpt lat="45.7698" lon="5.64704">
        <ele>317</ele>
        <time>2022-03-30T23:01:27Z</time>
      </trkpt>
      <trkpt lat="45.76878" lon="5.64735">
        <ele>310</ele>
        <time>2022-03-30T23:01:51Z</time>
      </trkpt>
      <trkpt lat="45.76852" lon="5.64746">
        <ele>307</ele>
        <time>2022-03-30T23:01:58Z</time>
      </trkpt>
      <trkpt lat="45.76805" lon="5.64754">
        <ele>304</ele>
        <time>2022-03-30T23:02:09Z</time>
      </trkpt>
      <trkpt lat="45.76772" lon="5.64755">
        <ele>302</ele>
        <time>2022-03-30T23:02:17Z</time>
      </trkpt>
      <trkpt lat="45.76708" lon="5.6474">
        <ele>298</ele>
        <time>2022-03-30T23:02:32Z</time>
      </trkpt>
      <trkpt lat="45.76661" lon="5.64746">
        <ele>298</ele>
        <time>2022-03-30T23:02:43Z</time>
      </trkpt>
      <trkpt lat="45.76625" lon="5.64764">
        <ele>299</ele>
        <time>2022-03-30T23:02:52Z</time>
      </trkpt>
      <trkpt lat="45.76584" lon="5.64793">
        <ele>301</ele>
        <time>2022-03-30T23:03:02Z</time>
      </trkpt>
      <trkpt lat="45.76536" lon="5.64808">
        <ele>299</ele>
        <time>2022-03-30T23:03:14Z</time>
      </trkpt>
      <trkpt lat="45.7649" lon="5.64832">
        <ele>296</ele>
        <time>2022-03-30T23:03:25Z</time>
      </trkpt>
      <trkpt lat="45.76449" lon="5.6486">
        <ele>294</ele>
        <time>2022-03-30T23:03:36Z</time>
      </trkpt>
      <trkpt lat="45.76402" lon="5.64904">
        <ele>293</ele>
        <time>2022-03-30T23:03:49Z</time>
      </trkpt>
      <trkpt lat="45.76349" lon="5.6491">
        <ele>289</ele>
        <time>2022-03-30T23:04:01Z</time>
      </trkpt>
      <trkpt lat="45.76309" lon="5.64905">
        <ele>286</ele>
        <time>2022-03-30T23:04:11Z</time>
      </trkpt>
      <trkpt lat="45.76287" lon="5.64895">
        <ele>286</ele>
        <time>2022-03-30T23:04:16Z</time>
      </trkpt>
      <trkpt lat="45.76268" lon="5.64878">
        <ele>287</ele>
        <time>2022-03-30T23:04:21Z</time>
      </trkpt>
      <trkpt lat="45.76218" lon="5.64911">
        <ele>285</ele>
        <time>2022-03-30T23:04:34Z</time>
      </trkpt>
      <trkpt lat="45.76203" lon="5.64935">
        <ele>284</ele>
        <time>2022-03-30T23:04:39Z</time>
      </trkpt>
      <trkpt lat="45.76203" lon="5.64976">
        <ele>280</ele>
        <time>2022-03-30T23:04:46Z</time>
      </trkpt>
      <trkpt lat="45.76211" lon="5.6503">
        <ele>276</ele>
        <time>2022-03-30T23:04:55Z</time>
      </trkpt>
      <trkpt lat="45.76209" lon="5.65044">
        <ele>275</ele>
        <time>2022-03-30T23:04:57Z</time>
      </trkpt>
      <trkpt lat="45.7619" lon="5.65091">
        <ele>269</ele>
        <time>2022-03-30T23:05:06Z</time>
      </trkpt>
      <trkpt lat="45.76186" lon="5.65126">
        <ele>266</ele>
        <time>2022-03-30T23:05:12Z</time>
      </trkpt>
      <trkpt lat="45.76185" lon="5.65178">
        <ele>263</ele>
        <time>2022-03-30T23:05:21Z</time>
      </trkpt>
      <trkpt lat="45.76189" lon="5.65192">
        <ele>262</ele>
        <time>2022-03-30T23:05:23Z</time>
      </trkpt>
      <trkpt lat="45.76219" lon="5.65237">
        <ele>259</ele>
        <time>2022-03-30T23:05:33Z</time>
      </trkpt>
      <trkpt lat="45.76294" lon="5.65324">
        <ele>249</ele>
        <time>2022-03-30T23:05:56Z</time>
      </trkpt>
      <trkpt lat="45.76302" lon="5.6534">
        <ele>246</ele>
        <time>2022-03-30T23:05:59Z</time>
      </trkpt>
      <trkpt lat="45.763" lon="5.6537">
        <ele>243</ele>
        <time>2022-03-30T23:06:04Z</time>
      </trkpt>
      <trkpt lat="45.76285" lon="5.65392">
        <ele>240</ele>
        <time>2022-03-30T23:06:09Z</time>
      </trkpt>
      <trkpt lat="45.76267" lon="5.65403">
        <ele>238</ele>
        <time>2022-03-30T23:06:13Z</time>
      </trkpt>
      <trkpt lat="45.76208" lon="5.65427">
        <ele>234</ele>
        <time>2022-03-30T23:06:28Z</time>
      </trkpt>
      <trkpt lat="45.76177" lon="5.65436">
        <ele>233</ele>
        <time>2022-03-30T23:06:35Z</time>
      </trkpt>
      <trkpt lat="45.76132" lon="5.65455">
        <ele>233</ele>
        <time>2022-03-30T23:06:46Z</time>
      </trkpt>
      <trkpt lat="45.761" lon="5.65477">
        <ele>232</ele>
        <time>2022-03-30T23:06:54Z</time>
      </trkpt>
      <trkpt lat="45.76094" lon="5.65488">
        <ele>231</ele>
        <time>2022-03-30T23:06:57Z</time>
      </trkpt>
      <trkpt lat="45.76084" lon="5.65524">
        <ele>230</ele>
        <time>2022-03-30T23:07:03Z</time>
      </trkpt>
      <trkpt lat="45.76055" lon="5.65707">
        <ele>227</ele>
        <time>2022-03-30T23:07:33Z</time>
      </trkpt>
      <trkpt lat="45.76052" lon="5.65743">
        <ele>227</ele>
        <time>2022-03-30T23:07:39Z</time>
      </trkpt>
      <trkpt lat="45.76035" lon="5.65797">
        <ele>228</ele>
        <time>2022-03-30T23:07:49Z</time>
      </trkpt>
      <trkpt lat="45.76009" lon="5.65859">
        <ele>228</ele>
        <time>2022-03-30T23:08:01Z</time>
      </trkpt>
      <trkpt lat="45.75994" lon="5.65911">
        <ele>228</ele>
        <time>2022-03-30T23:08:10Z</time>
      </trkpt>
      <trkpt lat="45.7599" lon="5.65936">
        <ele>229</ele>
        <time>2022-03-30T23:08:14Z</time>
      </trkpt>
      <trkpt lat="45.75988" lon="5.65988">
        <ele>230</ele>
        <time>2022-03-30T23:08:23Z</time>
      </trkpt>
      <trkpt lat="45.75991" lon="5.66086">
        <ele>231</ele>
        <time>2022-03-30T23:08:39Z</time>
      </trkpt>
      <trkpt lat="45.75996" lon="5.66156">
        <ele>233</ele>
        <time>2022-03-30T23:08:50Z</time>
      </trkpt>
      <trkpt lat="45.76037" lon="5.66229">
        <ele>234</ele>
        <time>2022-03-30T23:09:05Z</time>
      </trkpt>
      <trkpt lat="45.76092" lon="5.66302">
        <ele>238</ele>
        <time>2022-03-30T23:09:23Z</time>
      </trkpt>
      <trkpt lat="45.76108" lon="5.66315">
        <ele>239</ele>
        <time>2022-03-30T23:09:27Z</time>
      </trkpt>
      <trkpt lat="45.76148" lon="5.66331">
        <ele>243</ele>
        <time>2022-03-30T23:09:37Z</time>
      </trkpt>
      <trkpt lat="45.76154" lon="5.66344">
        <ele>244</ele>
        <time>2022-03-30T23:09:39Z</time>
      </trkpt>
      <trkpt lat="45.76164" lon="5.66394">
        <ele>248</ele>
        <time>2022-03-30T23:09:48Z</time>
      </trkpt>
      <trkpt lat="45.76181" lon="5.66437">
        <ele>251</ele>
        <time>2022-03-30T23:09:56Z</time>
      </trkpt>
      <trkpt lat="45.76196" lon="5.6646">
        <ele>253</ele>
        <time>2022-03-30T23:10:01Z</time>
      </trkpt>
      <trkpt lat="45.76216" lon="5.66476">
        <ele>254</ele>
        <time>2022-03-30T23:10:06Z</time>
      </trkpt>
      <trkpt lat="45.76238" lon="5.66488">
        <ele>256</ele>
        <time>2022-03-30T23:10:12Z</time>
      </trkpt>
      <trkpt lat="45.76254" lon="5.66486">
        <ele>257</ele>
        <time>2022-03-30T23:10:16Z</time>
      </trkpt>
      <trkpt lat="45.76288" lon="5.66458">
        <ele>259</ele>
        <time>2022-03-30T23:10:25Z</time>
      </trkpt>
      <trkpt lat="45.76316" lon="5.66449">
        <ele>261</ele>
        <time>2022-03-30T23:10:32Z</time>
      </trkpt>
      <trkpt lat="45.76332" lon="5.66438">
        <ele>262</ele>
        <time>2022-03-30T23:10:36Z</time>
      </trkpt>
      <trkpt lat="45.76355" lon="5.66415">
        <ele>263</ele>
        <time>2022-03-30T23:10:42Z</time>
      </trkpt>
      <trkpt lat="45.76381" lon="5.664">
        <ele>262</ele>
        <time>2022-03-30T23:10:49Z</time>
      </trkpt>
      <trkpt lat="45.76425" lon="5.66382">
        <ele>262</ele>
        <time>2022-03-30T23:10:59Z</time>
      </trkpt>
      <trkpt lat="45.76473" lon="5.66376">
        <ele>264</ele>
        <time>2022-03-30T23:11:11Z</time>
      </trkpt>
      <trkpt lat="45.76483" lon="5.66378">
        <ele>265</ele>
        <time>2022-03-30T23:11:13Z</time>
      </trkpt>
      <trkpt lat="45.76508" lon="5.66404">
        <ele>268</ele>
        <time>2022-03-30T23:11:20Z</time>
      </trkpt>
      <trkpt lat="45.76514" lon="5.66421">
        <ele>270</ele>
        <time>2022-03-30T23:11:23Z</time>
      </trkpt>
      <trkpt lat="45.76517" lon="5.66439">
        <ele>270</ele>
        <time>2022-03-30T23:11:26Z</time>
      </trkpt>
      <trkpt lat="45.76521" lon="5.66488">
        <ele>269</ele>
        <time>2022-03-30T23:11:34Z</time>
      </trkpt>
      <trkpt lat="45.7652" lon="5.66502">
        <ele>269</ele>
        <time>2022-03-30T23:11:37Z</time>
      </trkpt>
      <trkpt lat="45.76512" lon="5.6655">
        <ele>270</ele>
        <time>2022-03-30T23:11:45Z</time>
      </trkpt>
      <trkpt lat="45.76487" lon="5.66619">
        <ele>272</ele>
        <time>2022-03-30T23:11:57Z</time>
      </trkpt>
      <trkpt lat="45.76466" lon="5.66647">
        <ele>272</ele>
        <time>2022-03-30T23:12:04Z</time>
      </trkpt>
      <trkpt lat="45.76416" lon="5.6669">
        <ele>273</ele>
        <time>2022-03-30T23:12:18Z</time>
      </trkpt>
      <trkpt lat="45.76386" lon="5.66722">
        <ele>274</ele>
        <time>2022-03-30T23:12:26Z</time>
      </trkpt>
      <trkpt lat="45.76338" lon="5.668">
        <ele>278</ele>
        <time>2022-03-30T23:12:43Z</time>
      </trkpt>
      <trkpt lat="45.76328" lon="5.66808">
        <ele>278</ele>
        <time>2022-03-30T23:12:46Z</time>
      </trkpt>
      <trkpt lat="45.76276" lon="5.66823">
        <ele>279</ele>
        <time>2022-03-30T23:12:58Z</time>
      </trkpt>
      <trkpt lat="45.76219" lon="5.66844">
        <ele>279</ele>
        <time>2022-03-30T23:13:12Z</time>
      </trkpt>
      <trkpt lat="45.76189" lon="5.66851">
        <ele>279</ele>
        <time>2022-03-30T23:13:19Z</time>
      </trkpt>
      <trkpt lat="45.76179" lon="5.66856">
        <ele>279</ele>
        <time>2022-03-30T23:13:22Z</time>
      </trkpt>
      <trkpt lat="45.76152" lon="5.66878">
        <ele>278</ele>
        <time>2022-03-30T23:13:29Z</time>
      </trkpt>
      <trkpt lat="45.76097" lon="5.66933">
        <ele>277</ele>
        <time>2022-03-30T23:13:45Z</time>
      </trkpt>
      <trkpt lat="45.76046" lon="5.66997">
        <ele>276</ele>
        <time>2022-03-30T23:14:01Z</time>
      </trkpt>
      <trkpt lat="45.75983" lon="5.67033">
        <ele>274</ele>
        <time>2022-03-30T23:14:16Z</time>
      </trkpt>
      <trkpt lat="45.75949" lon="5.67074">
        <ele>275</ele>
        <time>2022-03-30T23:14:27Z</time>
      </trkpt>
      <trkpt lat="45.75868" lon="5.672">
        <ele>281</ele>
        <time>2022-03-30T23:14:55Z</time>
      </trkpt>
      <trkpt lat="45.7585" lon="5.67238">
        <ele>282</ele>
        <time>2022-03-30T23:15:02Z</time>
      </trkpt>
      <trkpt lat="45.75832" lon="5.67296">
        <ele>282</ele>
        <time>2022-03-30T23:15:12Z</time>
      </trkpt>
      <trkpt lat="45.75819" lon="5.67306">
        <ele>281</ele>
        <time>2022-03-30T23:15:16Z</time>
      </trkpt>
      <trkpt lat="45.75786" lon="5.67307">
        <ele>280</ele>
        <time>2022-03-30T23:15:24Z</time>
      </trkpt>
      <trkpt lat="45.75762" lon="5.67304">
        <ele>279</ele>
        <time>2022-03-30T23:15:29Z</time>
      </trkpt>
      <trkpt lat="45.75749" lon="5.673">
        <ele>278</ele>
        <time>2022-03-30T23:15:32Z</time>
      </trkpt>
      <trkpt lat="45.75741" lon="5.67294">
        <ele>277</ele>
        <time>2022-03-30T23:15:34Z</time>
      </trkpt>
      <trkpt lat="45.75725" lon="5.67323">
        <ele>279</ele>
        <time>2022-03-30T23:15:41Z</time>
      </trkpt>
      <trkpt lat="45.75643" lon="5.67442">
        <ele>283</ele>
        <time>2022-03-30T23:16:08Z</time>
      </trkpt>
      <trkpt lat="45.75613" lon="5.67495">
        <ele>284</ele>
        <time>2022-03-30T23:16:19Z</time>
      </trkpt>
      <trkpt lat="45.75589" lon="5.67553">
        <ele>283</ele>
        <time>2022-03-30T23:16:30Z</time>
      </trkpt>
      <trkpt lat="45.75569" lon="5.67622">
        <ele>283</ele>
        <time>2022-03-30T23:16:42Z</time>
      </trkpt>
      <trkpt lat="45.75543" lon="5.67697">
        <ele>283</ele>
        <time>2022-03-30T23:16:56Z</time>
      </trkpt>
      <trkpt lat="45.75536" lon="5.67723">
        <ele>283</ele>
        <time>2022-03-30T23:17:00Z</time>
      </trkpt>
      <trkpt lat="45.75534" lon="5.67749">
        <ele>284</ele>
        <time>2022-03-30T23:17:04Z</time>
      </trkpt>
      <trkpt lat="45.75536" lon="5.67868">
        <ele>285</ele>
        <time>2022-03-30T23:17:24Z</time>
      </trkpt>
      <trkpt lat="45.75527" lon="5.67921">
        <ele>287</ele>
        <time>2022-03-30T23:17:33Z</time>
      </trkpt>
      <trkpt lat="45.75491" lon="5.68024">
        <ele>291</ele>
        <time>2022-03-30T23:17:52Z</time>
      </trkpt>
      <trkpt lat="45.75475" lon="5.68044">
        <ele>291</ele>
        <time>2022-03-30T23:17:57Z</time>
      </trkpt>
      <trkpt lat="45.7547" lon="5.68054">
        <ele>291</ele>
        <time>2022-03-30T23:17:59Z</time>
      </trkpt>
      <trkpt lat="45.7547" lon="5.68067">
        <ele>291</ele>
        <time>2022-03-30T23:18:01Z</time>
      </trkpt>
      <trkpt lat="45.75479" lon="5.68072">
        <ele>291</ele>
        <time>2022-03-30T23:18:03Z</time>
      </trkpt>
      <trkpt lat="45.75501" lon="5.68091">
        <ele>292</ele>
        <time>2022-03-30T23:18:09Z</time>
      </trkpt>
      <trkpt lat="45.75517" lon="5.681">
        <ele>291</ele>
        <time>2022-03-30T23:18:13Z</time>
      </trkpt>
      <trkpt lat="45.75566" lon="5.68142">
        <ele>289</ele>
        <time>2022-03-30T23:18:26Z</time>
      </trkpt>
      <trkpt lat="45.75603" lon="5.68167">
        <ele>289</ele>
        <time>2022-03-30T23:18:36Z</time>
      </trkpt>
      <trkpt lat="45.75573" lon="5.68342">
        <ele>287</ele>
        <time>2022-03-30T23:19:05Z</time>
      </trkpt>
      <trkpt lat="45.75574" lon="5.68358">
        <ele>287</ele>
        <time>2022-03-30T23:19:08Z</time>
      </trkpt>
      <trkpt lat="45.75568" lon="5.68364">
        <ele>288</ele>
        <time>2022-03-30T23:19:09Z</time>
      </trkpt>
      <trkpt lat="45.75567" lon="5.68375">
        <ele>288</ele>
        <time>2022-03-30T23:19:11Z</time>
      </trkpt>
      <trkpt lat="45.75576" lon="5.68382">
        <ele>287</ele>
        <time>2022-03-30T23:19:14Z</time>
      </trkpt>
      <trkpt lat="45.75616" lon="5.68486">
        <ele>284</ele>
        <time>2022-03-30T23:19:33Z</time>
      </trkpt>
      <trkpt lat="45.75655" lon="5.68609">
        <ele>284</ele>
        <time>2022-03-30T23:19:55Z</time>
      </trkpt>
      <trkpt lat="45.75657" lon="5.68623">
        <ele>284</ele>
        <time>2022-03-30T23:19:57Z</time>
      </trkpt>
      <trkpt lat="45.75802" lon="5.68624">
        <ele>281</ele>
        <time>2022-03-30T23:20:31Z</time>
      </trkpt>
      <trkpt lat="45.75823" lon="5.68626">
        <ele>281</ele>
        <time>2022-03-30T23:20:36Z</time>
      </trkpt>
      <trkpt lat="45.75822" lon="5.68666">
        <ele>281</ele>
        <time>2022-03-30T23:20:43Z</time>
      </trkpt>
      <trkpt lat="45.75811" lon="5.68753">
        <ele>279</ele>
        <time>2022-03-30T23:20:57Z</time>
      </trkpt>
      <trkpt lat="45.75795" lon="5.68814">
        <ele>279</ele>
        <time>2022-03-30T23:21:08Z</time>
      </trkpt>
      <trkpt lat="45.75774" lon="5.68862">
        <ele>280</ele>
        <time>2022-03-30T23:21:17Z</time>
      </trkpt>
      <trkpt lat="45.75779" lon="5.68873">
        <ele>280</ele>
        <time>2022-03-30T23:21:19Z</time>
      </trkpt>
      <trkpt lat="45.75781" lon="5.68885">
        <ele>280</ele>
        <time>2022-03-30T23:21:21Z</time>
      </trkpt>
      <trkpt lat="45.75778" lon="5.68902">
        <ele>280</ele>
        <time>2022-03-30T23:21:24Z</time>
      </trkpt>
      <trkpt lat="45.75813" lon="5.68909">
        <ele>280</ele>
        <time>2022-03-30T23:21:32Z</time>
      </trkpt>
      <trkpt lat="45.75801" lon="5.68938">
        <ele>281</ele>
        <time>2022-03-30T23:21:38Z</time>
      </trkpt>
    </trkseg>
  </trk>
</gpx>